createdAt,value
2023-05-19T00:00:17.237Z,8.37
2023-05-19T00:03:21.924Z,5.95
2023-05-19T00:06:27.766Z,5.97
2023-05-19T00:09:31.496Z,6.60
2023-05-19T00:12:34.988Z,5.23
2023-05-19T00:15:37.952Z,5.47
2023-05-19T00:18:40.792Z,5.30
2023-05-19T00:21:43.410Z,8.55
2023-05-19T00:24:45.969Z,5.70
2023-05-19T00:27:48.525Z,7.20
2023-05-19T00:30:51.918Z,6.30
2023-05-19T00:33:54.592Z,8.38
2023-05-19T00:36:57.174Z,5.03
2023-05-19T00:39:59.897Z,5.97
2023-05-19T00:43:03.027Z,5.10
2023-05-19T00:46:07.431Z,7.30
2023-05-19T00:49:10.041Z,6.68
2023-05-19T00:52:12.644Z,5.93
2023-05-19T00:55:15.487Z,5.55
2023-05-19T00:58:19.297Z,6.73
2023-05-19T01:01:22.477Z,9.07
2023-05-19T01:04:26.674Z,6.53
2023-05-19T01:07:30.199Z,6.75
2023-05-19T01:10:33.228Z,7.93
2023-05-19T01:13:36.957Z,7.50
2023-05-19T01:17:05.788Z,8.30
2023-05-19T01:20:13.970Z,9.68
2023-05-19T01:23:40.152Z,11.73
2023-05-19T01:27:06.936Z,8.93
2023-05-19T01:30:26.528Z,9.57
2023-05-19T01:33:31.341Z,9.90
2023-05-19T01:36:35.436Z,10.93
2023-05-19T01:39:40.238Z,16.80
2023-05-19T01:42:43.188Z,12.85
2023-05-19T01:45:48.475Z,12.03
2023-05-19T01:48:52.566Z,12.07
2023-05-19T01:51:56.442Z,10.75
2023-05-19T01:54:59.335Z,9.45
2023-05-19T01:58:23.096Z,10.90
2023-05-19T02:02:01.102Z,9.43
2023-05-19T02:05:12.955Z,11.90
2023-05-19T02:08:33.876Z,11.20
2023-05-19T02:11:54.996Z,9.40
2023-05-19T02:15:11.816Z,9.23
2023-05-19T02:18:17.931Z,8.20
2023-05-19T02:21:20.615Z,7.67
2023-05-19T02:24:23.481Z,8.63
2023-05-19T02:27:26.431Z,8.32
2023-05-19T02:30:29.090Z,8.75
2023-05-19T02:33:31.653Z,7.90
2023-05-19T02:36:36.699Z,8.57
2023-05-19T02:39:39.421Z,11.15
2023-05-19T02:42:42.024Z,8.77
2023-05-19T02:45:45.479Z,10.10
2023-05-19T02:48:48.105Z,7.60
2023-05-19T02:51:50.659Z,7.80
2023-05-19T02:54:53.197Z,10.82
2023-05-19T02:57:55.946Z,7.57
2023-05-19T03:00:58.535Z,9.48
2023-05-19T03:04:01.811Z,7.37
2023-05-19T03:07:06.322Z,10.73
2023-05-19T03:10:09.179Z,8.82
2023-05-19T03:13:11.837Z,9.45
2023-05-19T03:16:14.575Z,10.00
2023-05-19T03:19:18.359Z,8.63
2023-05-19T03:22:21.473Z,9.33
2023-05-19T03:25:24.394Z,8.30
2023-05-19T03:28:29.659Z,9.82
2023-05-19T03:31:32.429Z,10.90
2023-05-19T03:34:35.686Z,11.60
2023-05-19T03:37:38.664Z,12.23
2023-05-19T03:40:41.884Z,8.93
2023-05-19T03:43:46.851Z,9.60
2023-05-19T03:46:50.227Z,8.15
2023-05-19T03:49:52.713Z,8.50
2023-05-19T03:53:18.574Z,9.17
2023-05-19T03:56:23.770Z,21.95
2023-05-19T03:59:26.398Z,8.00
2023-05-19T04:02:29.028Z,7.43
2023-05-19T04:05:31.881Z,7.03
2023-05-19T04:08:35.777Z,7.67
2023-05-19T04:11:39.762Z,7.40
2023-05-19T04:14:42.345Z,7.18
2023-05-19T04:17:46.251Z,9.07
2023-05-19T04:20:49.075Z,4.70
2023-05-19T04:23:51.899Z,6.77
2023-05-19T04:26:54.467Z,7.05
2023-05-19T04:29:58.173Z,6.20
2023-05-19T04:33:01.362Z,6.28
2023-05-19T04:36:08.632Z,9.97
2023-05-19T04:39:12.428Z,6.17
2023-05-19T04:42:19.525Z,6.22
2023-05-19T04:45:23.472Z,4.55
2023-05-19T04:48:31.036Z,5.15
2023-05-19T04:51:33.724Z,4.40
2023-05-19T04:54:38.584Z,8.70
2023-05-19T04:57:41.803Z,5.32
2023-05-19T05:00:44.559Z,7.55
2023-05-19T05:03:48.095Z,4.22
2023-05-19T05:06:51.606Z,4.77
2023-05-19T05:09:55.000Z,3.60
2023-05-19T05:12:58.107Z,5.18
2023-05-19T05:16:01.036Z,5.72
2023-05-19T05:19:04.076Z,7.55
2023-05-19T05:22:07.413Z,5.83
2023-05-19T05:25:14.535Z,6.10
2023-05-19T05:28:18.775Z,6.35
2023-05-19T05:31:23.080Z,5.70
2023-05-19T05:34:25.748Z,5.50
2023-05-19T05:37:29.708Z,6.60
2023-05-19T05:40:33.458Z,5.83
2023-05-19T05:43:36.282Z,5.13
2023-05-19T05:46:40.348Z,6.38
2023-05-19T05:49:44.160Z,8.70
2023-05-19T05:52:49.107Z,6.07
2023-05-19T05:55:53.792Z,6.40
2023-05-19T05:59:00.215Z,7.13
2023-05-19T06:02:03.504Z,7.75
2023-05-19T06:05:08.276Z,7.45
2023-05-19T06:08:11.218Z,9.90
2023-05-19T06:11:14.072Z,6.50
2023-05-19T06:14:17.560Z,7.28
2023-05-19T06:17:41.009Z,8.43
2023-05-19T06:20:43.678Z,7.47
2023-05-19T06:23:46.224Z,7.33
2023-05-19T06:26:48.869Z,6.57
2023-05-19T06:29:53.309Z,9.05
2023-05-19T06:32:56.849Z,8.90
2023-05-19T06:36:01.112Z,9.55
2023-05-19T06:39:04.004Z,8.37
2023-05-19T06:42:08.181Z,7.77
2023-05-19T06:45:40.108Z,9.75
2023-05-19T06:48:44.382Z,8.48
2023-05-19T06:51:47.891Z,8.43
2023-05-19T06:54:50.832Z,8.90
2023-05-19T06:57:53.955Z,8.80
2023-05-19T07:00:57.030Z,7.22
2023-05-19T07:04:03.627Z,11.68
2023-05-19T07:07:06.529Z,8.13
2023-05-19T07:10:09.955Z,7.60
2023-05-19T07:13:12.758Z,10.20
2023-05-19T07:16:15.559Z,8.27
2023-05-19T07:19:19.902Z,7.85
2023-05-19T07:22:24.226Z,8.57
2023-05-19T07:25:28.772Z,10.63
2023-05-19T07:28:31.522Z,7.00
2023-05-19T07:31:34.254Z,7.32
2023-05-19T07:34:36.895Z,8.43
2023-05-19T07:37:39.632Z,7.03
2023-05-19T07:40:42.228Z,8.10
2023-05-19T07:43:44.796Z,7.70
2023-05-19T07:46:47.970Z,7.22
2023-05-19T07:49:51.851Z,8.63
2023-05-19T07:52:56.652Z,6.93
2023-05-19T07:56:02.074Z,7.63
2023-05-19T07:59:04.898Z,9.57
2023-05-19T08:02:07.904Z,7.60
2023-05-19T08:05:10.800Z,8.05
2023-05-19T08:08:17.857Z,6.85
2023-05-19T08:11:21.890Z,6.27
2023-05-19T08:14:25.093Z,6.67
2023-05-19T08:17:27.894Z,4.30
2023-05-19T08:20:32.079Z,4.82
2023-05-19T08:23:34.919Z,4.30
2023-05-19T08:26:38.196Z,4.43
2023-05-19T08:29:41.198Z,4.37
2023-05-19T08:32:44.830Z,3.13
2023-05-19T08:35:48.209Z,4.50
2023-05-19T08:38:51.186Z,5.45
2023-05-19T08:41:54.643Z,3.77
2023-05-19T08:44:57.660Z,3.87
2023-05-19T08:48:00.948Z,4.15
2023-05-19T08:51:33.479Z,4.78
2023-05-19T08:54:54.715Z,2.92
2023-05-19T08:57:57.649Z,4.73
2023-05-19T09:01:01.421Z,5.03
2023-05-19T09:04:04.746Z,3.00
2023-05-19T09:07:09.520Z,3.17
2023-05-19T09:10:16.315Z,4.20
2023-05-19T09:13:19.616Z,7.63
2023-05-19T09:16:22.619Z,3.67
2023-05-19T09:19:29.124Z,5.25
2023-05-19T09:22:35.738Z,4.18
2023-05-19T09:25:47.327Z,3.75
2023-05-19T09:28:49.931Z,3.10
2023-05-19T09:31:54.797Z,5.00
2023-05-19T09:34:57.373Z,3.80
2023-05-19T09:38:00.987Z,3.08
2023-05-19T09:41:05.250Z,6.43
2023-05-19T09:44:07.924Z,3.70
2023-05-19T09:47:11.767Z,4.33
2023-05-19T09:50:14.516Z,3.05
2023-05-19T09:53:19.361Z,3.63
2023-05-19T09:56:23.939Z,2.63
2023-05-19T09:59:30.531Z,3.28
2023-05-19T10:02:35.325Z,4.33
2023-05-19T10:05:38.711Z,3.35
2023-05-19T10:08:42.596Z,4.25
2023-05-19T10:11:46.095Z,3.90
2023-05-19T10:14:49.857Z,4.23
2023-05-19T10:17:53.317Z,4.23
2023-05-19T10:20:58.270Z,5.32
2023-05-19T10:24:01.177Z,4.25
2023-05-19T10:27:08.514Z,3.28
2023-05-19T10:30:16.885Z,3.58
2023-05-19T10:33:23.297Z,2.83
2023-05-19T10:36:40.935Z,4.22
2023-05-19T10:39:46.132Z,3.45
2023-05-19T10:43:19.537Z,3.67
2023-05-19T10:46:27.600Z,3.60
2023-05-19T10:49:36.672Z,4.10
2023-05-19T10:52:40.776Z,4.05
2023-05-19T10:55:49.469Z,3.63
2023-05-19T10:58:53.064Z,3.42
2023-05-19T11:01:55.722Z,6.17
2023-05-19T11:05:09.328Z,3.67
2023-05-19T11:08:12.853Z,4.03
2023-05-19T11:11:17.081Z,3.42
2023-05-19T11:14:26.760Z,3.42
2023-05-19T11:17:29.612Z,3.85
2023-05-19T11:20:34.862Z,3.33
2023-05-19T11:23:40.704Z,3.72
2023-05-19T11:26:43.911Z,4.88
2023-05-19T11:29:49.291Z,4.75
2023-05-19T11:33:01.018Z,4.75
2023-05-19T11:36:05.753Z,3.30
2023-05-19T11:39:09.600Z,3.20
2023-05-19T11:42:12.163Z,2.97
2023-05-19T11:45:14.707Z,4.03
2023-05-19T11:48:21.251Z,3.53
2023-05-19T11:51:24.423Z,4.00
2023-05-19T11:54:33.823Z,3.88
2023-05-19T11:57:36.719Z,8.65
2023-05-19T12:00:43.385Z,3.42
2023-05-19T12:03:46.607Z,3.80
2023-05-19T12:06:51.463Z,4.23
2023-05-19T12:09:55.885Z,3.50
2023-05-19T12:12:59.870Z,2.63
2023-05-19T12:16:04.778Z,2.92
2023-05-19T12:19:07.512Z,3.00
2023-05-19T12:22:10.869Z,3.40
2023-05-19T12:25:15.274Z,3.03
2023-05-19T12:28:19.813Z,3.13
2023-05-19T12:31:25.616Z,3.80
2023-05-19T12:34:28.479Z,3.50
2023-05-19T12:37:31.124Z,2.67
2023-05-19T12:40:37.800Z,5.50
2023-05-19T12:43:41.179Z,3.60
2023-05-19T12:46:44.439Z,4.55
2023-05-19T12:49:57.567Z,4.72
2023-05-19T12:53:00.346Z,4.77
2023-05-19T12:56:13.176Z,3.42
2023-05-19T12:59:30.922Z,2.80
2023-05-19T13:03:00.105Z,3.45
2023-05-19T13:06:03.024Z,5.00
2023-05-19T13:09:07.355Z,10.37
2023-05-19T13:12:09.877Z,3.08
2023-05-19T13:15:12.949Z,7.65
2023-05-19T13:18:15.530Z,3.53
2023-05-19T13:21:18.013Z,3.72
2023-05-19T13:24:20.558Z,4.03
2023-05-19T13:27:24.862Z,3.20
2023-05-19T13:30:28.367Z,3.00
2023-05-19T13:33:30.964Z,5.78
2023-05-19T13:36:35.042Z,7.22
2023-05-19T13:39:38.055Z,5.73
2023-05-19T13:42:41.624Z,3.50
2023-05-19T13:45:44.671Z,3.42
2023-05-19T13:48:47.331Z,3.50
2023-05-19T13:51:50.032Z,3.60
2023-05-19T13:54:54.643Z,5.07
2023-05-19T13:57:58.153Z,3.60
2023-05-19T14:01:01.006Z,5.82
2023-05-19T14:04:05.253Z,4.60
2023-05-19T14:07:08.392Z,7.20
2023-05-19T14:10:11.414Z,4.50
2023-05-19T14:13:31.637Z,4.15
2023-05-19T14:16:38.160Z,3.58
2023-05-19T14:19:41.194Z,4.07
2023-05-19T14:22:43.713Z,3.85
2023-05-19T14:25:46.248Z,4.27
2023-05-19T14:28:48.984Z,5.25
2023-05-19T14:31:51.750Z,3.67
2023-05-19T14:34:54.367Z,4.68
2023-05-19T14:37:56.880Z,3.53
2023-05-19T14:40:59.446Z,5.93
2023-05-19T14:44:01.979Z,4.00
2023-05-19T14:47:04.976Z,5.60
2023-05-19T14:50:07.991Z,3.85
2023-05-19T14:53:11.014Z,9.80
2023-05-19T14:56:13.565Z,15.37
2023-05-19T14:59:16.107Z,3.97
2023-05-19T15:02:18.644Z,4.05
2023-05-19T15:05:22.909Z,3.42
2023-05-19T15:08:25.883Z,3.58
2023-05-19T15:11:28.412Z,3.37
2023-05-19T15:14:31.419Z,3.63
2023-05-19T15:17:34.193Z,4.47
2023-05-19T15:20:36.921Z,3.85
2023-05-19T15:23:39.602Z,3.83
2023-05-19T15:26:42.161Z,4.37
2023-05-19T15:29:44.853Z,3.50
2023-05-19T15:32:47.430Z,3.38
2023-05-19T15:35:52.091Z,5.03
2023-05-19T15:38:54.684Z,4.05
2023-05-19T15:41:57.226Z,3.80
2023-05-19T15:44:59.833Z,6.82
2023-05-19T15:48:03.396Z,3.90
2023-05-19T15:51:06.214Z,4.20
2023-05-19T15:54:08.712Z,7.30
2023-05-19T15:57:11.339Z,3.90
2023-05-19T16:00:14.492Z,3.40
2023-05-19T16:03:17.092Z,4.32
2023-05-19T16:06:20.623Z,3.33
2023-05-19T16:09:23.188Z,3.13
2023-05-19T16:12:27.530Z,4.63
2023-05-19T16:15:30.179Z,3.13
2023-05-19T16:18:32.752Z,3.38
2023-05-19T16:21:35.256Z,4.50
2023-05-19T16:24:37.726Z,3.85
2023-05-19T16:27:40.236Z,4.40
2023-05-19T16:30:43.210Z,4.13
2023-05-19T16:33:46.273Z,3.83
2023-05-19T16:36:48.919Z,5.00
2023-05-19T16:39:51.408Z,3.40
2023-05-19T16:42:54.125Z,4.90
2023-05-19T16:45:57.176Z,5.03
2023-05-19T16:48:59.811Z,4.10
2023-05-19T16:52:02.309Z,4.45
2023-05-19T16:55:06.018Z,3.78
2023-05-19T16:58:10.629Z,3.97
2023-05-19T17:01:13.229Z,3.80
2023-05-19T17:04:15.924Z,5.72
2023-05-19T17:07:18.612Z,3.83
2023-05-19T17:10:21.185Z,4.93
2023-05-19T17:13:23.784Z,5.67
2023-05-19T17:16:26.468Z,6.65
2023-05-19T17:19:29.181Z,4.75
2023-05-19T17:22:31.921Z,4.35
2023-05-19T17:25:34.783Z,5.75
2023-05-19T17:28:37.449Z,5.00
2023-05-19T17:31:40.107Z,4.22
2023-05-19T17:34:42.649Z,4.85
2023-05-19T17:37:45.137Z,5.82
2023-05-19T17:40:47.882Z,7.22
2023-05-19T17:43:50.756Z,4.03
2023-05-19T17:46:53.428Z,6.43
2023-05-19T17:49:56.021Z,4.85
2023-05-19T17:52:58.925Z,4.30
2023-05-19T17:56:03.581Z,7.10
2023-05-19T17:59:06.858Z,4.73
2023-05-19T18:02:10.037Z,8.27
2023-05-19T18:05:13.336Z,6.85
2023-05-19T18:08:16.771Z,4.72
2023-05-19T18:11:19.682Z,8.43
2023-05-19T18:14:22.163Z,5.93
2023-05-19T18:17:24.764Z,7.05
2023-05-19T18:20:27.356Z,5.63
2023-05-19T18:23:30.177Z,8.52
2023-05-19T18:26:33.653Z,9.20
2023-05-19T18:29:36.202Z,5.53
2023-05-19T18:32:38.934Z,6.55
2023-05-19T18:35:41.497Z,9.38
2023-05-19T18:38:44.086Z,6.75
2023-05-19T18:41:47.616Z,8.77
2023-05-19T18:44:50.817Z,9.30
2023-05-19T18:47:54.642Z,7.80
2023-05-19T18:50:57.398Z,11.45
2023-05-19T18:54:00.191Z,8.20
2023-05-19T18:57:03.626Z,11.37
2023-05-19T19:00:06.866Z,7.40
2023-05-19T19:03:11.937Z,7.90
2023-05-19T19:06:17.115Z,11.93
2023-05-19T19:09:19.786Z,8.23
2023-05-19T19:12:22.341Z,8.53
2023-05-19T19:15:25.477Z,8.63
2023-05-19T19:18:28.128Z,10.07
2023-05-19T19:21:31.886Z,7.63
2023-05-19T19:24:34.433Z,10.95
2023-05-19T19:27:37.329Z,8.00
2023-05-19T19:30:39.933Z,7.13
2023-05-19T19:33:43.582Z,10.23
2023-05-19T19:36:47.911Z,7.70
2023-05-19T19:39:50.607Z,7.65
2023-05-19T19:42:53.153Z,8.60
2023-05-19T19:46:00.803Z,8.40
2023-05-19T19:49:03.510Z,7.55
2023-05-19T19:52:06.132Z,11.57
2023-05-19T19:55:09.895Z,9.93
2023-05-19T19:58:12.915Z,14.27
2023-05-19T20:01:16.167Z,12.00
2023-05-19T20:04:18.849Z,11.77
2023-05-19T20:07:23.365Z,12.10
2023-05-19T20:10:26.081Z,14.02
2023-05-19T20:13:30.012Z,15.97
2023-05-19T20:16:33.988Z,17.10
2023-05-19T20:19:36.661Z,13.52
2023-05-19T20:22:39.520Z,11.07
2023-05-19T20:25:58.518Z,9.32
2023-05-19T20:29:05.200Z,8.27
2023-05-19T20:32:07.650Z,7.77
2023-05-19T20:35:10.259Z,7.90
2023-05-19T20:38:12.810Z,9.07
2023-05-19T20:41:15.487Z,10.85
2023-05-19T20:44:18.039Z,9.87
2023-05-19T20:47:21.154Z,7.90
2023-05-19T20:50:23.698Z,8.63
2023-05-19T20:53:26.524Z,9.15
2023-05-19T20:56:29.075Z,9.20
2023-05-19T20:59:32.145Z,5.90
2023-05-19T21:02:34.740Z,7.00
2023-05-19T21:05:37.306Z,7.45
2023-05-19T21:08:39.799Z,6.72
2023-05-19T21:11:42.364Z,8.63
2023-05-19T21:14:44.941Z,7.10
2023-05-19T21:17:47.669Z,8.20
2023-05-19T21:20:50.798Z,7.45
2023-05-19T21:23:53.361Z,8.88
2023-05-19T21:26:55.926Z,7.13
2023-05-19T21:29:58.479Z,8.37
2023-05-19T21:33:01.089Z,9.53
2023-05-19T21:36:03.752Z,8.35
2023-05-19T21:39:06.407Z,7.65
2023-05-19T21:42:09.057Z,9.02
2023-05-19T21:45:11.739Z,7.83
2023-05-19T21:48:14.233Z,10.17
2023-05-19T21:51:16.865Z,7.68
2023-05-19T21:54:19.380Z,9.60
2023-05-19T21:57:21.854Z,7.63
2023-05-19T22:00:25.880Z,7.80
2023-05-19T22:03:28.964Z,7.07
2023-05-19T22:06:31.672Z,6.50
2023-05-19T22:09:34.527Z,8.68
2023-05-19T22:12:37.192Z,7.15
2023-05-19T22:15:39.732Z,9.03
2023-05-19T22:18:42.627Z,6.87
2023-05-19T22:21:45.207Z,8.82
2023-05-19T22:24:47.738Z,6.25
2023-05-19T22:27:50.464Z,12.00
2023-05-19T22:30:52.962Z,9.17
2023-05-19T22:33:56.060Z,8.80
2023-05-19T22:36:58.690Z,8.25
2023-05-19T22:40:01.165Z,8.68
2023-05-19T22:43:03.721Z,9.95
2023-05-19T22:46:06.437Z,7.60
2023-05-19T22:49:08.956Z,6.93
2023-05-19T22:52:11.524Z,9.02
2023-05-19T22:55:14.060Z,8.55
2023-05-19T22:58:16.582Z,11.43
2023-05-19T23:01:19.142Z,10.10
2023-05-19T23:04:21.915Z,8.27
2023-05-19T23:07:24.506Z,13.85
2023-05-19T23:10:27.058Z,12.18
2023-05-19T23:13:34.146Z,11.77
2023-05-19T23:16:36.611Z,8.30
2023-05-19T23:19:39.176Z,9.43
2023-05-19T23:22:41.951Z,8.75
2023-05-19T23:25:44.515Z,7.50
2023-05-19T23:28:47.292Z,9.07
2023-05-19T23:31:49.832Z,7.33
2023-05-19T23:34:52.405Z,7.83
2023-05-19T23:37:54.999Z,8.77
2023-05-19T23:40:57.590Z,10.77
2023-05-19T23:44:00.132Z,7.32
2023-05-19T23:47:02.772Z,7.73
2023-05-19T23:50:05.784Z,12.73
2023-05-19T23:53:12.484Z,9.63
2023-05-19T23:56:15.057Z,9.13
2023-05-19T23:59:17.530Z,8.90
